createdAt,value
2023-01-17T00:02:19.944Z,98513.09
2023-01-17T00:05:05.282Z,98519.59
2023-01-17T00:07:52.121Z,98483.19
2023-01-17T00:10:21.662Z,98571.53
2023-01-17T00:12:50.766Z,98556.72
2023-01-17T00:15:20.191Z,98556.03
2023-01-17T00:17:50.092Z,98512.31
2023-01-17T00:20:41.441Z,98502.28
2023-01-17T00:23:34.226Z,98485.81
2023-01-17T00:26:05.458Z,98565.56
2023-01-17T00:28:34.505Z,98604.00
2023-01-17T00:31:01.995Z,98615.41
2023-01-17T00:33:29.958Z,98605.63
2023-01-17T00:36:00.116Z,98622.66
2023-01-17T00:38:29.955Z,98539.78
2023-01-17T00:41:03.256Z,98538.44
2023-01-17T00:43:50.075Z,98616.56
2023-01-17T00:46:41.233Z,98548.66
2023-01-17T00:49:27.438Z,98563.06
2023-01-17T00:52:13.059Z,98541.97
2023-01-17T00:54:58.579Z,98585.13
2023-01-17T00:57:47.176Z,98588.38
2023-01-17T01:00:37.617Z,98595.59
2023-01-17T01:03:30.152Z,98559.09
2023-01-17T01:06:16.045Z,98553.34
2023-01-17T01:09:01.743Z,98601.66
2023-01-17T01:11:47.214Z,98639.72
2023-01-17T01:14:32.654Z,98560.97
2023-01-17T01:17:18.376Z,98604.91
2023-01-17T01:20:04.010Z,98579.78
2023-01-17T01:22:49.638Z,98610.34
2023-01-17T01:25:35.577Z,98576.53
2023-01-17T01:28:26.924Z,98660.19
2023-01-17T01:31:15.274Z,98593.88
2023-01-17T01:33:42.477Z,98608.97
2023-01-17T01:36:10.184Z,98595.47
2023-01-17T01:38:38.428Z,98616.72
2023-01-17T01:41:06.433Z,98609.03
2023-01-17T01:43:57.349Z,98678.69
2023-01-17T01:46:28.100Z,98709.44
2023-01-17T01:49:04.516Z,98670.84
2023-01-17T01:51:36.948Z,98615.28
2023-01-17T01:54:09.944Z,98713.19
2023-01-17T01:56:38.468Z,98659.28
2023-01-17T01:59:11.474Z,98682.13
2023-01-17T02:01:38.758Z,98677.19
2023-01-17T02:04:10.205Z,98647.03
2023-01-17T02:06:41.775Z,98688.22
2023-01-17T02:09:12.723Z,98743.81
2023-01-17T02:11:44.921Z,98746.13
2023-01-17T02:14:20.071Z,98695.03
2023-01-17T02:17:01.329Z,98727.16
2023-01-17T02:19:46.539Z,98755.63
2023-01-17T02:22:35.283Z,98759.41
2023-01-17T02:25:08.274Z,98753.13
2023-01-17T02:27:52.740Z,98752.09
2023-01-17T02:30:31.912Z,98751.44
2023-01-17T02:33:22.671Z,98756.78
2023-01-17T02:36:05.688Z,98767.44
2023-01-17T02:38:58.583Z,98743.91
2023-01-17T02:41:31.243Z,98717.56
2023-01-17T02:44:01.067Z,98722.78
2023-01-17T02:46:28.091Z,98730.97
2023-01-17T02:48:58.486Z,98716.19
2023-01-17T02:51:54.502Z,98704.75
2023-01-17T02:54:32.438Z,98696.38
2023-01-17T02:57:55.292Z,98727.38
2023-01-17T03:00:52.712Z,98736.19
2023-01-17T03:03:24.359Z,98803.53
2023-01-17T03:05:57.584Z,98721.09
2023-01-17T03:08:26.139Z,98762.63
2023-01-17T03:10:54.216Z,98758.94
2023-01-17T03:13:21.801Z,98741.31
2023-01-17T03:15:49.330Z,98734.47
2023-01-17T03:18:17.162Z,98785.63
2023-01-17T03:20:47.032Z,98716.41
2023-01-17T03:23:14.218Z,98712.97
2023-01-17T03:25:41.204Z,98693.97
2023-01-17T03:28:08.344Z,98685.59
2023-01-17T03:30:36.627Z,98788.00
2023-01-17T03:33:03.587Z,98749.47
2023-01-17T03:35:30.990Z,98760.88
2023-01-17T03:38:01.066Z,98723.13
2023-01-17T03:40:28.233Z,98718.59
2023-01-17T03:42:55.245Z,98744.44
2023-01-17T03:45:22.598Z,98754.56
2023-01-17T03:47:50.123Z,98802.72
2023-01-17T03:50:17.426Z,98721.09
2023-01-17T03:52:45.016Z,98739.72
2023-01-17T03:55:12.061Z,98756.31
2023-01-17T03:57:39.293Z,98739.78
2023-01-17T04:00:07.896Z,98731.75
2023-01-17T04:02:34.992Z,98818.75
2023-01-17T04:05:01.967Z,98769.59
2023-01-17T04:07:29.220Z,98752.19
2023-01-17T04:09:56.372Z,98740.41
2023-01-17T04:12:23.468Z,98743.69
2023-01-17T04:14:50.351Z,98743.31
2023-01-17T04:17:20.996Z,98735.31
2023-01-17T04:19:48.122Z,98762.34
2023-01-17T04:22:15.385Z,98784.63
2023-01-17T04:24:42.634Z,98761.59
2023-01-17T04:27:14.516Z,98795.69
2023-01-17T04:29:41.859Z,98745.69
2023-01-17T04:32:08.793Z,98754.63
2023-01-17T04:34:35.944Z,98749.50
2023-01-17T04:37:03.345Z,98758.53
2023-01-17T04:39:30.266Z,98750.34
2023-01-17T04:41:57.455Z,98790.13
2023-01-17T04:44:24.715Z,98799.44
2023-01-17T04:46:54.798Z,98844.09
2023-01-17T04:49:21.814Z,98769.34
2023-01-17T04:51:48.962Z,98740.66
2023-01-17T04:54:16.009Z,98753.41
2023-01-17T04:56:42.927Z,98756.41
2023-01-17T04:59:10.372Z,98753.13
2023-01-17T05:01:37.387Z,98756.81
2023-01-17T05:04:04.876Z,98808.09
2023-01-17T05:06:32.470Z,98769.78
2023-01-17T05:08:59.681Z,98802.59
2023-01-17T05:11:26.561Z,98793.94
2023-01-17T05:13:53.917Z,98765.41
2023-01-17T05:16:21.207Z,98752.53
2023-01-17T05:18:53.280Z,98753.34
2023-01-17T05:21:22.350Z,98761.00
2023-01-17T05:23:52.618Z,98763.78
2023-01-17T05:26:19.756Z,98785.50
2023-01-17T05:28:47.316Z,98786.13
2023-01-17T05:31:14.623Z,98793.78
2023-01-17T05:33:42.141Z,98759.94
2023-01-17T05:36:09.508Z,98767.47
2023-01-17T05:38:36.527Z,98780.97
2023-01-17T05:41:05.205Z,98773.13
2023-01-17T05:43:31.998Z,98862.00
2023-01-17T05:45:59.141Z,98786.63
2023-01-17T05:48:26.245Z,98869.09
2023-01-17T05:50:53.812Z,98802.88
2023-01-17T05:53:23.817Z,98816.50
2023-01-17T05:55:51.022Z,98821.97
2023-01-17T05:58:21.402Z,98791.06
2023-01-17T06:00:51.951Z,98803.06
2023-01-17T06:03:19.366Z,98872.06
2023-01-17T06:05:47.584Z,98808.59
2023-01-17T06:08:14.635Z,98870.53
2023-01-17T06:10:41.986Z,98836.88
2023-01-17T06:13:13.185Z,98852.75
2023-01-17T06:15:41.225Z,98791.69
2023-01-17T06:18:14.584Z,98805.41
2023-01-17T06:20:45.207Z,98885.09
2023-01-17T06:23:13.969Z,98831.75
2023-01-17T06:25:43.889Z,98882.03
2023-01-17T06:28:12.539Z,98857.47
2023-01-17T06:30:40.134Z,98836.69
2023-01-17T06:33:07.198Z,98803.69
2023-01-17T06:35:34.389Z,98804.16
2023-01-17T06:38:01.384Z,98861.47
2023-01-17T06:40:29.542Z,98823.53
2023-01-17T06:43:02.026Z,98838.63
2023-01-17T06:45:31.634Z,98911.72
2023-01-17T06:48:00.324Z,98812.00
2023-01-17T06:50:27.474Z,98904.34
2023-01-17T06:52:59.947Z,98837.03
2023-01-17T06:55:31.354Z,98828.91
2023-01-17T06:57:59.987Z,98840.94
2023-01-17T07:00:29.309Z,98828.31
2023-01-17T07:02:56.329Z,98862.56
2023-01-17T07:05:23.690Z,98828.91
2023-01-17T07:07:50.864Z,98884.84
2023-01-17T07:10:19.057Z,98907.97
2023-01-17T07:12:47.679Z,98890.72
2023-01-17T07:15:14.583Z,98851.09
2023-01-17T07:17:42.572Z,98865.53
2023-01-17T07:20:10.215Z,98845.53
2023-01-17T07:22:37.916Z,98841.03
2023-01-17T07:25:06.398Z,98832.41
2023-01-17T07:27:33.777Z,98839.19
2023-01-17T07:30:01.229Z,98851.69
2023-01-17T07:32:29.782Z,98920.34
2023-01-17T07:34:59.404Z,98912.03
2023-01-17T07:37:26.654Z,98834.38
2023-01-17T07:39:54.749Z,98847.41
2023-01-17T07:42:24.219Z,98823.94
2023-01-17T07:44:54.360Z,98878.34
2023-01-17T07:47:21.585Z,98875.56
2023-01-17T07:49:48.743Z,98854.19
2023-01-17T07:52:18.067Z,98881.97
2023-01-17T07:54:46.894Z,98867.63
2023-01-17T07:57:13.870Z,98830.88
2023-01-17T07:59:40.927Z,98823.34
2023-01-17T08:02:20.068Z,98888.97
2023-01-17T08:04:48.459Z,98872.56
2023-01-17T08:07:17.250Z,98867.91
2023-01-17T08:09:44.722Z,98831.91
2023-01-17T08:12:11.712Z,98888.31
2023-01-17T08:14:38.768Z,98918.41
2023-01-17T08:17:17.833Z,98908.44
2023-01-17T08:19:45.390Z,98872.47
2023-01-17T08:22:12.641Z,98936.66
2023-01-17T08:24:39.517Z,98887.69
2023-01-17T08:27:06.513Z,98864.94
2023-01-17T08:29:33.403Z,98900.84
2023-01-17T08:32:00.787Z,98888.06
2023-01-17T08:34:29.042Z,98892.34
2023-01-17T08:36:56.426Z,98871.00
2023-01-17T08:39:27.902Z,98875.06
2023-01-17T08:41:54.821Z,98871.44
2023-01-17T08:44:22.886Z,98869.97
2023-01-17T08:46:53.144Z,98897.66
2023-01-17T08:49:22.047Z,98933.44
2023-01-17T08:51:52.748Z,98877.50
2023-01-17T08:54:22.396Z,98883.31
2023-01-17T08:56:52.857Z,98930.97
2023-01-17T08:59:19.868Z,98909.25
2023-01-17T09:01:47.048Z,98920.25
2023-01-17T09:04:14.790Z,98889.38
2023-01-17T09:06:46.632Z,98895.25
2023-01-17T09:09:15.712Z,98905.78
2023-01-17T09:11:43.034Z,98946.44
2023-01-17T09:14:12.467Z,98937.22
2023-01-17T09:16:39.632Z,98930.22
2023-01-17T09:19:07.428Z,98900.22
2023-01-17T09:21:34.513Z,98960.63
2023-01-17T09:24:01.626Z,98960.63
2023-01-17T09:26:30.439Z,98909.91
2023-01-17T09:28:58.660Z,98911.66
2023-01-17T09:31:27.401Z,98919.50
2023-01-17T09:33:55.600Z,98924.16
2023-01-17T09:36:23.088Z,98911.75
2023-01-17T09:38:50.505Z,98947.38
2023-01-17T09:41:46.327Z,98990.75
2023-01-17T09:44:25.231Z,98996.25
2023-01-17T09:46:55.725Z,98905.06
2023-01-17T09:49:42.561Z,98953.91
2023-01-17T09:52:19.553Z,98977.69
2023-01-17T09:54:48.687Z,98980.22
2023-01-17T09:57:35.146Z,99014.16
2023-01-17T10:00:26.879Z,99015.75
2023-01-17T10:03:17.789Z,99019.31
2023-01-17T10:06:08.071Z,99025.72
2023-01-17T10:09:15.266Z,99022.19
2023-01-17T10:12:04.759Z,99026.94
2023-01-17T10:14:50.959Z,99025.91
2023-01-17T10:17:43.915Z,99031.88
2023-01-17T10:20:34.423Z,99031.06
2023-01-17T10:23:22.197Z,99031.78
2023-01-17T10:25:55.116Z,99004.09
2023-01-17T10:28:35.327Z,98960.88
2023-01-17T10:31:10.682Z,98963.03
2023-01-17T10:33:52.087Z,98985.50
2023-01-17T10:36:21.676Z,98959.75
2023-01-17T10:38:53.852Z,98973.75
2023-01-17T10:41:42.348Z,99008.47
2023-01-17T10:44:28.604Z,99032.63
2023-01-17T10:47:11.223Z,99043.19
2023-01-17T10:49:42.865Z,99034.22
2023-01-17T10:52:24.244Z,98997.47
2023-01-17T10:55:10.235Z,99039.09
2023-01-17T10:57:41.145Z,98974.06
2023-01-17T11:00:40.082Z,99029.94
2023-01-17T11:03:07.305Z,98943.09
2023-01-17T11:05:34.524Z,98941.13
2023-01-17T11:08:07.402Z,98976.47
2023-01-17T11:10:50.580Z,98948.50
2023-01-17T11:13:22.700Z,99015.28
2023-01-17T11:15:53.563Z,99021.72
2023-01-17T11:18:22.124Z,98941.22
2023-01-17T11:20:50.083Z,98951.59
2023-01-17T11:23:31.362Z,98962.72
2023-01-17T11:26:05.009Z,98963.94
2023-01-17T11:28:37.079Z,98988.63
2023-01-17T11:31:08.965Z,99017.00
2023-01-17T11:33:56.107Z,98945.19
2023-01-17T11:36:31.100Z,98934.25
2023-01-17T11:39:06.596Z,99010.03
2023-01-17T11:41:39.409Z,98960.38
2023-01-17T11:44:31.120Z,99011.03
2023-01-17T11:47:19.457Z,98983.41
2023-01-17T11:49:51.539Z,98926.28
2023-01-17T11:52:33.197Z,98926.19
2023-01-17T11:55:01.383Z,98963.19
2023-01-17T11:57:35.831Z,98930.09
2023-01-17T12:00:32.482Z,98922.44
2023-01-17T12:03:39.176Z,98930.00
2023-01-17T12:06:51.517Z,98994.69
2023-01-17T12:09:40.077Z,98992.72
2023-01-17T12:12:34.685Z,98991.66
2023-01-17T12:15:30.560Z,98987.69
2023-01-17T12:18:14.251Z,98989.25
2023-01-17T12:20:46.790Z,98934.97
2023-01-17T12:23:27.269Z,98946.94
2023-01-17T12:26:27.818Z,98984.22
2023-01-17T12:29:00.396Z,98982.22
2023-01-17T12:31:44.196Z,98935.81
2023-01-17T12:34:43.360Z,98987.25
2023-01-17T12:37:10.616Z,98994.50
2023-01-17T12:39:43.653Z,98961.69
2023-01-17T12:42:24.316Z,98936.50
2023-01-17T12:44:58.074Z,98986.44
2023-01-17T12:47:26.051Z,98907.91
2023-01-17T12:50:20.540Z,98989.66
2023-01-17T12:53:03.071Z,98935.03
2023-01-17T12:55:57.800Z,98985.25
2023-01-17T12:58:31.208Z,98919.66
2023-01-17T13:01:19.120Z,98986.25
2023-01-17T13:04:15.500Z,98942.53
2023-01-17T13:07:00.293Z,98917.78
2023-01-17T13:09:38.432Z,98916.66
2023-01-17T13:12:19.809Z,98902.22
2023-01-17T13:14:47.850Z,98909.78
2023-01-17T13:17:18.271Z,98991.31
2023-01-17T13:20:30.826Z,98949.34
2023-01-17T13:23:08.903Z,98905.13
2023-01-17T13:25:49.566Z,98947.34
2023-01-17T13:28:57.287Z,98960.34
2023-01-17T13:31:35.000Z,98943.88
2023-01-17T13:34:41.320Z,98996.38
2023-01-17T13:37:40.885Z,98968.41
2023-01-17T13:40:31.207Z,98998.38
2023-01-17T13:43:04.585Z,98990.66
2023-01-17T13:45:37.282Z,98920.50
2023-01-17T13:48:27.902Z,98915.47
2023-01-17T13:51:09.050Z,98954.59
2023-01-17T13:53:37.129Z,99002.41
2023-01-17T13:56:19.481Z,99004.94
2023-01-17T13:58:49.051Z,98991.00
2023-01-17T14:01:22.606Z,99018.47
2023-01-17T14:03:53.101Z,99012.19
2023-01-17T14:06:40.741Z,99016.38
2023-01-17T14:09:19.002Z,98943.88
2023-01-17T14:11:58.510Z,99027.03
2023-01-17T14:14:57.055Z,98973.88
2023-01-17T14:17:52.524Z,99023.94
2023-01-17T14:20:25.706Z,99031.91
2023-01-17T14:23:00.587Z,98996.16
2023-01-17T14:25:39.002Z,99032.22
2023-01-17T14:28:31.585Z,98992.81
2023-01-17T14:31:00.945Z,99006.66
2023-01-17T14:33:31.114Z,99027.31
2023-01-17T14:36:03.289Z,98940.69
2023-01-17T14:38:33.320Z,99012.63
2023-01-17T14:41:09.917Z,99021.44
2023-01-17T14:43:41.255Z,98951.31
2023-01-17T14:46:17.720Z,98946.50
2023-01-17T14:48:44.614Z,98965.03
2023-01-17T14:51:21.619Z,98984.75
2023-01-17T14:54:03.318Z,99037.88
2023-01-17T14:56:31.294Z,98993.84
2023-01-17T14:59:24.525Z,98976.16
2023-01-17T15:02:07.535Z,98967.44
2023-01-17T15:04:40.063Z,99031.47
2023-01-17T15:07:07.817Z,98973.78
2023-01-17T15:09:38.759Z,99021.72
2023-01-17T15:12:14.900Z,99049.59
2023-01-17T15:14:46.502Z,99002.06
2023-01-17T15:17:24.656Z,98978.97
2023-01-17T15:19:57.501Z,99047.56
2023-01-17T15:22:26.162Z,99030.31
2023-01-17T15:24:54.811Z,98970.09
2023-01-17T15:27:22.143Z,99021.78
2023-01-17T15:29:49.515Z,98962.94
2023-01-17T15:32:28.150Z,98962.22
2023-01-17T15:34:55.480Z,99005.28
2023-01-17T15:37:31.664Z,99052.28
2023-01-17T15:40:20.216Z,98975.84
2023-01-17T15:42:54.338Z,99005.00
2023-01-17T15:45:35.219Z,99024.88
2023-01-17T15:48:33.870Z,99053.41
2023-01-17T15:51:00.912Z,99006.31
2023-01-17T15:53:34.505Z,98971.66
2023-01-17T15:56:18.522Z,99018.47
2023-01-17T15:58:50.161Z,99069.88
2023-01-17T16:01:27.723Z,98994.78
2023-01-17T16:03:55.569Z,98985.53
2023-01-17T16:06:36.238Z,99028.28
2023-01-17T16:09:07.410Z,98980.69
2023-01-17T16:11:34.135Z,99058.53
2023-01-17T16:14:01.990Z,99061.88
2023-01-17T16:16:29.149Z,99020.97
2023-01-17T16:19:01.413Z,99000.44
2023-01-17T16:21:30.942Z,99070.19
2023-01-17T16:23:59.393Z,99054.38
2023-01-17T16:26:29.509Z,99015.56
2023-01-17T16:28:56.596Z,99059.03
2023-01-17T16:31:23.715Z,99090.16
2023-01-17T16:33:52.556Z,99095.13
2023-01-17T16:36:21.133Z,99103.41
2023-01-17T16:38:49.861Z,99089.44
2023-01-17T16:41:17.829Z,99054.75
2023-01-17T16:43:45.121Z,99033.06
2023-01-17T16:46:12.594Z,99009.81
2023-01-17T16:48:39.802Z,99068.59
2023-01-17T16:51:08.479Z,99044.31
2023-01-17T16:53:36.038Z,99103.91
2023-01-17T16:56:11.988Z,99121.53
2023-01-17T16:58:39.468Z,99022.81
2023-01-17T17:01:11.396Z,99026.59
2023-01-17T17:03:38.458Z,99086.56
2023-01-17T17:06:05.653Z,99033.78
2023-01-17T17:08:35.250Z,99116.53
2023-01-17T17:11:16.612Z,99057.75
2023-01-17T17:13:49.507Z,99028.84
2023-01-17T17:16:20.951Z,99038.34
2023-01-17T17:18:55.606Z,99119.44
2023-01-17T17:21:22.651Z,99043.91
2023-01-17T17:23:57.082Z,99096.91
2023-01-17T17:26:35.750Z,99050.00
2023-01-17T17:29:04.719Z,99049.81
2023-01-17T17:31:31.991Z,99108.94
2023-01-17T17:34:02.962Z,99126.59
2023-01-17T17:36:31.605Z,99131.06
2023-01-17T17:38:58.584Z,99134.69
2023-01-17T17:41:28.228Z,99060.06
2023-01-17T17:43:55.543Z,99056.34
2023-01-17T17:46:24.061Z,99045.50
2023-01-17T17:48:51.321Z,99110.13
2023-01-17T17:51:40.688Z,99133.44
2023-01-17T17:54:14.940Z,99110.38
2023-01-17T17:56:46.731Z,99079.13
2023-01-17T17:59:18.291Z,99165.56
2023-01-17T18:01:46.294Z,99070.53
2023-01-17T18:04:13.460Z,99165.91
2023-01-17T18:06:41.082Z,99103.00
2023-01-17T18:09:09.782Z,99074.56
2023-01-17T18:11:40.215Z,99181.13
2023-01-17T18:14:10.647Z,99137.56
2023-01-17T18:16:43.334Z,99083.88
2023-01-17T18:19:25.535Z,99129.22
2023-01-17T18:21:53.635Z,99094.97
2023-01-17T18:24:23.205Z,99103.94
2023-01-17T18:26:57.284Z,99098.06
2023-01-17T18:29:26.560Z,99155.78
2023-01-17T18:31:54.266Z,99109.38
2023-01-17T18:34:28.677Z,99155.88
2023-01-17T18:36:55.899Z,99126.00
2023-01-17T18:39:27.154Z,99133.41
2023-01-17T18:41:56.272Z,99137.72
2023-01-17T18:44:23.555Z,99212.94
2023-01-17T18:46:52.777Z,99149.19
2023-01-17T18:49:19.806Z,99188.75
2023-01-17T18:51:51.504Z,99216.84
2023-01-17T18:54:20.414Z,99164.50
2023-01-17T18:56:48.726Z,99216.16
2023-01-17T18:59:18.577Z,99214.78
2023-01-17T19:01:45.721Z,99126.69
2023-01-17T19:04:14.274Z,99222.84
2023-01-17T19:06:43.003Z,99141.09
2023-01-17T19:09:11.136Z,99226.34
2023-01-17T19:11:39.570Z,99165.06
2023-01-17T19:14:07.260Z,99148.44
2023-01-17T19:16:39.265Z,99191.09
2023-01-17T19:19:09.432Z,99205.63
2023-01-17T19:21:36.692Z,99219.06
2023-01-17T19:24:04.171Z,99156.84
2023-01-17T19:26:31.322Z,99147.50
2023-01-17T19:29:01.911Z,99155.16
2023-01-17T19:31:30.876Z,99252.47
2023-01-17T19:33:59.800Z,99218.13
2023-01-17T19:36:29.457Z,99217.06
2023-01-17T19:39:04.933Z,99162.84
2023-01-17T19:41:34.793Z,99179.16
2023-01-17T19:44:07.141Z,99229.56
2023-01-17T19:46:35.488Z,99234.16
2023-01-17T19:49:03.825Z,99217.00
2023-01-17T19:51:30.847Z,99170.34
2023-01-17T19:54:01.989Z,99218.13
2023-01-17T19:56:30.594Z,99160.00
2023-01-17T19:59:01.336Z,99258.09
2023-01-17T20:01:32.190Z,99265.84
2023-01-17T20:04:01.574Z,99174.63
2023-01-17T20:06:31.104Z,99261.47
2023-01-17T20:08:58.249Z,99224.47
2023-01-17T20:11:26.708Z,99200.28
2023-01-17T20:13:55.877Z,99219.66
2023-01-17T20:16:24.417Z,99228.22
2023-01-17T20:18:53.167Z,99230.50
2023-01-17T20:21:21.120Z,99257.19
2023-01-17T20:23:50.631Z,99256.84
2023-01-17T20:26:21.862Z,99268.47
2023-01-17T20:28:54.628Z,99184.34
2023-01-17T20:31:25.049Z,99219.31
2023-01-17T20:33:54.342Z,99264.09
2023-01-17T20:36:25.435Z,99195.59
2023-01-17T20:38:54.520Z,99189.09
2023-01-17T20:41:31.060Z,99180.06
2023-01-17T20:44:01.883Z,99221.34
2023-01-17T20:46:33.507Z,99212.97
2023-01-17T20:49:05.925Z,99185.44
2023-01-17T20:51:34.611Z,99246.03
2023-01-17T20:54:03.824Z,99193.88
2023-01-17T20:56:34.954Z,99220.91
2023-01-17T20:59:07.736Z,99196.78
2023-01-17T21:01:35.221Z,99249.78
2023-01-17T21:04:03.316Z,99252.31
2023-01-17T21:06:31.318Z,99213.47
2023-01-17T21:09:00.133Z,99296.34
2023-01-17T21:11:30.868Z,99211.25
2023-01-17T21:13:58.199Z,99210.41
2023-01-17T21:16:28.110Z,99210.41
2023-01-17T21:18:55.534Z,99244.34
2023-01-17T21:21:25.342Z,99271.63
2023-01-17T21:23:54.830Z,99226.06
2023-01-17T21:26:22.831Z,99220.22
2023-01-17T21:28:50.986Z,99292.03
2023-01-17T21:31:30.002Z,99211.22
2023-01-17T21:34:04.275Z,99210.47
2023-01-17T21:36:33.981Z,99229.19
2023-01-17T21:39:04.981Z,99223.56
2023-01-17T21:41:35.818Z,99254.25
2023-01-17T21:44:08.953Z,99229.69
2023-01-17T21:46:40.473Z,99229.47
2023-01-17T21:49:10.856Z,99283.59
2023-01-17T21:51:53.203Z,99211.31
2023-01-17T21:54:58.020Z,99308.03
2023-01-17T21:57:43.513Z,99291.47
2023-01-17T22:00:18.471Z,99311.03
2023-01-17T22:02:47.872Z,99222.59
2023-01-17T22:05:18.737Z,99238.06
2023-01-17T22:08:06.125Z,99312.47
2023-01-17T22:10:44.524Z,99323.56
2023-01-17T22:13:16.569Z,99247.88
2023-01-17T22:15:44.746Z,99309.44
2023-01-17T22:18:15.638Z,99326.94
2023-01-17T22:20:44.532Z,99279.84
2023-01-17T22:23:12.040Z,99330.00
2023-01-17T22:25:38.703Z,99237.47
2023-01-17T22:28:05.768Z,99236.81
2023-01-17T22:30:33.734Z,99303.56
2023-01-17T22:33:01.483Z,99243.09
2023-01-17T22:35:28.392Z,99299.78
2023-01-17T22:37:56.693Z,99306.66
2023-01-17T22:40:23.734Z,99245.91
2023-01-17T22:42:50.699Z,99248.66
2023-01-17T22:45:20.471Z,99312.84
2023-01-17T22:47:47.207Z,99335.63
2023-01-17T22:50:14.297Z,99342.53
2023-01-17T22:52:41.634Z,99350.34
2023-01-17T22:55:12.410Z,99274.22
2023-01-17T22:57:39.528Z,99326.84
2023-01-17T23:00:14.747Z,99268.81
2023-01-17T23:02:43.556Z,99336.34
2023-01-17T23:05:10.734Z,99258.78
2023-01-17T23:07:44.114Z,99270.56
2023-01-17T23:10:39.506Z,99247.94
2023-01-17T23:13:10.083Z,99306.44
2023-01-17T23:15:59.415Z,99307.91
2023-01-17T23:18:44.714Z,99259.59
2023-01-17T23:21:13.043Z,99301.31
2023-01-17T23:23:40.077Z,99288.50
2023-01-17T23:26:07.622Z,99254.91
2023-01-17T23:28:34.527Z,99283.72
2023-01-17T23:31:04.023Z,99325.75
2023-01-17T23:33:30.831Z,99248.84
2023-01-17T23:35:57.803Z,99283.66
2023-01-17T23:38:29.742Z,99270.22
2023-01-17T23:41:26.335Z,99279.56
2023-01-17T23:43:55.394Z,99281.31
2023-01-17T23:46:24.491Z,99245.81
2023-01-17T23:48:52.541Z,99293.28
2023-01-17T23:51:19.497Z,99268.94
2023-01-17T23:53:46.692Z,99307.75
2023-01-17T23:56:17.385Z,99309.59
2023-01-17T23:58:45.593Z,99255.38
